CST,Max TemperatureF,Mean TemperatureF,Min TemperatureF,Max Dew PointF,MeanDew PointF,Min DewpointF,Max Humidity, Mean Humidity, Min Humidity, Max Sea Level PressureIn, Mean Sea Level PressureIn, Min Sea Level PressureIn, Max VisibilityMiles, Mean VisibilityMiles, Min VisibilityMiles, Max Wind SpeedMPH, Mean Wind SpeedMPH, Max Gust SpeedMPH,PrecipitationIn, CloudCover, Events, WindDirDegrees
2013-1-1,60,51,41,57,50,39,100,89,78,30.22,30.06,29.99,10,6,2,15,8,21,1.86,8,Rain,354
2013-1-2,41,39,36,39,33,29,93,82,70,30.32,30.26,30.18,10,10,10,15,7,20,0.00,5,,3
2013-1-3,49,40,31,33,30,28,92,69,46,30.48,30.41,30.33,10,10,7,14,6,20,0.00,0,,8
2013-1-4,51,42,32,34,31,29,92,68,44,30.54,30.47,30.42,10,10,6,12,5,15,0.00,5,,20
2013-1-5,45,40,35,42,38,33,92,86,79,30.45,30.38,30.31,10,9,4,9,3,12,0.28,7,Rain,39
2013-1-6,55,43,30,43,40,31,100,82,64,30.40,30.33,30.28,10,10,5,8,4,12,T,5,,15
2013-1-7,57,43,28,38,33,28,100,72,43,30.42,30.33,30.23,10,6,0,10,3,13,0.00,0,Fog,32
2013-1-8,62,49,35,57,47,35,100,82,64,30.26,30.18,30.10,10,10,6,12,6,17,0.11,6,Rain,110
2013-1-9,64,61,58,63,59,57,100,95,90,30.24,30.18,30.12,10,5,1,17,8,22,1.15,8,Rain,90
2013-1-10,67,64,60,63,62,60,100,94,87,30.21,30.10,29.88,10,5,0,31,7,37,5.37,8,Fog-Rain-Thunderstorm,45
2013-1-11,73,65,56,68,60,52,100,75,49,30.11,30.04,29.97,10,7,0,16,7,21,0.23,5,Fog-Rain,175
2013-1-12,78,74,69,70,67,64,100,82,64,30.02,29.94,29.82,10,9,2,23,13,29,0.34,5,Rain,170
2013-1-13,73,58,42,66,51,37,93,83,73,30.22,29.98,29.78,10,8,2,24,12,36,0.80,7,Rain-Thunderstorm,327
2013-1-14,43,38,33,37,33,30,96,88,79,30.29,30.24,30.19,10,8,2,24,12,31,0.27,8,Rain-Snow,16
2013-1-15,36,35,33,34,33,30,100,95,89,30.19,30.11,30.06,10,5,2,16,10,20,1.24,8,Rain-Thunderstorm,4
2013-1-16,36,35,33,34,32,30,100,91,82,30.22,30.16,30.09,10,7,2,14,8,20,0.56,8,Rain-Snow,332
2013-1-17,53,43,32,38,33,30,100,75,50,30.51,30.30,30.17,10,8,2,20,7,25,0.08,4,Snow,323
2013-1-18,58,46,33,40,34,27,100,65,30,30.61,30.49,30.39,10,8,2,9,3,12,0.00,0,,25
2013-1-19,59,47,35,46,38,32,100,77,54,30.42,30.34,30.26,10,9,2,9,2,12,0.00,0,,185
2013-1-20,65,50,35,48,39,34,100,70,40,30.31,30.25,30.19,10,6,0,7,1,13,0.00,0,Fog,14
2013-1-21,53,46,38,44,37,30,100,75,50,30.31,30.23,30.17,10,5,0,16,6,21,0.00,1,Fog,10
2013-1-22,53,45,37,36,28,24,76,56,35,30.43,30.36,30.32,10,10,10,12,5,15,0.00,5,,69
2013-1-23,70,55,39,50,44,34,89,63,37,30.40,30.32,30.26,10,10,10,13,5,18,0.00,3,,195
2013-1-24,64,57,50,55,52,48,96,84,72,30.35,30.27,30.19,10,10,6,10,3,14,T,6,Rain,333
2013-1-25,73,61,49,58,54,46,93,75,57,30.24,30.19,30.12,10,10,10,16,8,24,0.00,6,,232
2013-1-26,55,51,47,47,46,43,93,83,72,30.30,30.25,30.22,10,10,6,13,6,15,0.00,8,,31
2013-1-27,76,62,48,57,53,47,100,75,49,30.29,30.23,30.17,10,8,0,15,8,18,0.00,3,Fog,149
2013-1-28,73,67,60,62,60,56,90,77,64,30.25,30.17,30.11,10,10,10,15,9,20,0.00,6,,161
2013-1-29,81,72,62,66,63,61,93,74,54,30.11,29.91,29.68,10,10,10,26,14,40,0.00,7,,170
2013-1-30,77,57,37,65,46,29,93,72,50,30.18,29.82,29.67,10,7,2,29,11,43,0.99,6,Rain-Thunderstorm,289
2013-1-31,62,47,31,32,29,24,92,59,25,30.32,30.24,30.18,10,10,10,13,6,26,0.00,0,,223